sensor_id;sensor_type;location;lat;lon;timestamp;P1;durP1;ratioP1;P2;durP2;ratioP2
49610;SDS011;35515;48.766;9.176;2023-01-28T00:00:13;10.50;;;7.47;;
49610;SDS011;35515;48.766;9.176;2023-01-28T00:02:40;8.88;;;6.18;;
49610;SDS011;35515;48.766;9.176;2023-01-28T00:05:09;9.60;;;7.22;;
49610;SDS011;35515;48.766;9.176;2023-01-28T00:07:35;10.57;;;7.85;;
49610;SDS011;35515;48.766;9.176;2023-01-28T00:10:02;10.63;;;7.05;;
49610;SDS011;35515;48.766;9.176;2023-01-28T00:12:29;9.50;;;7.35;;
49610;SDS011;35515;48.766;9.176;2023-01-28T00:14:56;11.70;;;6.97;;
49610;SDS011;35515;48.766;9.176;2023-01-28T00:17:22;9.70;;;7.28;;
49610;SDS011;35515;48.766;9.176;2023-01-28T00:19:49;10.35;;;7.38;;
49610;SDS011;35515;48.766;9.176;2023-01-28T00:22:17;9.65;;;7.00;;
49610;SDS011;35515;48.766;9.176;2023-01-28T00:24:44;10.38;;;7.28;;
49610;SDS011;35515;48.766;9.176;2023-01-28T00:27:11;8.77;;;6.88;;
49610;SDS011;35515;48.766;9.176;2023-01-28T00:29:37;10.90;;;7.60;;
49610;SDS011;35515;48.766;9.176;2023-01-28T00:32:04;9.35;;;6.60;;
49610;SDS011;35515;48.766;9.176;2023-01-28T00:34:31;11.95;;;7.18;;
49610;SDS011;35515;48.766;9.176;2023-01-28T00:36:57;9.75;;;6.45;;
49610;SDS011;35515;48.766;9.176;2023-01-28T00:39:25;10.30;;;7.22;;
49610;SDS011;35515;48.766;9.176;2023-01-28T00:41:52;12.02;;;7.03;;
49610;SDS011;35515;48.766;9.176;2023-01-28T00:44:19;9.35;;;7.00;;
49610;SDS011;35515;48.766;9.176;2023-01-28T00:46:46;10.40;;;7.57;;
49610;SDS011;35515;48.766;9.176;2023-01-28T00:49:13;10.65;;;7.35;;
49610;SDS011;35515;48.766;9.176;2023-01-28T00:51:39;11.32;;;7.68;;
49610;SDS011;35515;48.766;9.176;2023-01-28T00:54:06;11.00;;;7.28;;
49610;SDS011;35515;48.766;9.176;2023-01-28T00:56:34;9.85;;;7.50;;
49610;SDS011;35515;48.766;9.176;2023-01-28T00:59:01;12.70;;;7.05;;
49610;SDS011;35515;48.766;9.176;2023-01-28T01:01:28;10.35;;;7.00;;
49610;SDS011;35515;48.766;9.176;2023-01-28T01:03:54;11.30;;;7.10;;
49610;SDS011;35515;48.766;9.176;2023-01-28T01:08:53;11.38;;;7.55;;
49610;SDS011;35515;48.766;9.176;2023-01-28T01:11:19;9.38;;;6.53;;
49610;SDS011;35515;48.766;9.176;2023-01-28T01:13:51;9.38;;;6.65;;
49610;SDS011;35515;48.766;9.176;2023-01-28T01:16:21;9.95;;;6.63;;
49610;SDS011;35515;48.766;9.176;2023-01-28T01:18:48;10.23;;;6.75;;
49610;SDS011;35515;48.766;9.176;2023-01-28T01:21:17;8.85;;;6.40;;
49610;SDS011;35515;48.766;9.176;2023-01-28T01:23:45;8.43;;;6.30;;
49610;SDS011;35515;48.766;9.176;2023-01-28T01:26:12;9.43;;;6.28;;
49610;SDS011;35515;48.766;9.176;2023-01-28T01:28:38;9.43;;;6.85;;
49610;SDS011;35515;48.766;9.176;2023-01-28T01:31:07;9.18;;;6.75;;
49610;SDS011;35515;48.766;9.176;2023-01-28T01:33:37;9.90;;;6.38;;
49610;SDS011;35515;48.766;9.176;2023-01-28T01:36:04;8.32;;;6.13;;
49610;SDS011;35515;48.766;9.176;2023-01-28T01:38:31;11.07;;;6.32;;
49610;SDS011;35515;48.766;9.176;2023-01-28T01:40:59;10.15;;;7.43;;
49610;SDS011;35515;48.766;9.176;2023-01-28T01:46:13;9.57;;;6.82;;
49610;SDS011;35515;48.766;9.176;2023-01-28T01:48:42;10.32;;;7.20;;
49610;SDS011;35515;48.766;9.176;2023-01-28T01:51:09;9.90;;;6.50;;
49610;SDS011;35515;48.766;9.176;2023-01-28T01:53:40;9.43;;;6.85;;
49610;SDS011;35515;48.766;9.176;2023-01-28T01:56:10;8.07;;;6.22;;
49610;SDS011;35515;48.766;9.176;2023-01-28T01:58:40;7.93;;;6.32;;
49610;SDS011;35515;48.766;9.176;2023-01-28T02:01:09;8.15;;;5.95;;
49610;SDS011;35515;48.766;9.176;2023-01-28T02:03:41;9.07;;;6.25;;
49610;SDS011;35515;48.766;9.176;2023-01-28T02:06:13;9.10;;;5.85;;
49610;SDS011;35515;48.766;9.176;2023-01-28T02:08:40;9.68;;;6.55;;
49610;SDS011;35515;48.766;9.176;2023-01-28T02:11:08;11.88;;;6.82;;
49610;SDS011;35515;48.766;9.176;2023-01-28T02:13:38;12.63;;;6.80;;
49610;SDS011;35515;48.766;9.176;2023-01-28T02:16:08;10.32;;;6.75;;
49610;SDS011;35515;48.766;9.176;2023-01-28T02:18:36;10.90;;;6.32;;
49610;SDS011;35515;48.766;9.176;2023-01-28T02:21:25;12.27;;;6.93;;
49610;SDS011;35515;48.766;9.176;2023-01-28T02:27:20;12.75;;;7.72;;
49610;SDS011;35515;48.766;9.176;2023-01-28T02:29:55;9.90;;;6.28;;
49610;SDS011;35515;48.766;9.176;2023-01-28T02:32:29;9.10;;;5.97;;
49610;SDS011;35515;48.766;9.176;2023-01-28T02:35:05;9.88;;;6.80;;
49610;SDS011;35515;48.766;9.176;2023-01-28T02:37:37;10.00;;;6.68;;
49610;SDS011;35515;48.766;9.176;2023-01-28T02:40:11;8.82;;;6.68;;
49610;SDS011;35515;48.766;9.176;2023-01-28T02:42:42;8.20;;;5.55;;
49610;SDS011;35515;48.766;9.176;2023-01-28T02:45:20;9.23;;;5.78;;
49610;SDS011;35515;48.766;9.176;2023-01-28T02:48:10;8.10;;;6.13;;
49610;SDS011;35515;48.766;9.176;2023-01-28T02:50:38;8.07;;;6.57;;
49610;SDS011;35515;48.766;9.176;2023-01-28T02:53:16;9.50;;;6.00;;
49610;SDS011;35515;48.766;9.176;2023-01-28T02:56:06;9.77;;;5.90;;
49610;SDS011;35515;48.766;9.176;2023-01-28T02:58:41;9.00;;;6.45;;
49610;SDS011;35515;48.766;9.176;2023-01-28T03:01:15;8.80;;;6.20;;
49610;SDS011;35515;48.766;9.176;2023-01-28T03:03:51;9.30;;;6.18;;
49610;SDS011;35515;48.766;9.176;2023-01-28T03:06:25;9.90;;;6.35;;
49610;SDS011;35515;48.766;9.176;2023-01-28T03:08:57;11.02;;;7.00;;
49610;SDS011;35515;48.766;9.176;2023-01-28T03:11:45;10.35;;;6.68;;
49610;SDS011;35515;48.766;9.176;2023-01-28T03:14:33;10.30;;;6.60;;
49610;SDS011;35515;48.766;9.176;2023-01-28T03:17:20;9.82;;;7.22;;
49610;SDS011;35515;48.766;9.176;2023-01-28T03:20:09;10.27;;;6.55;;
49610;SDS011;35515;48.766;9.176;2023-01-28T03:22:55;9.60;;;6.70;;
49610;SDS011;35515;48.766;9.176;2023-01-28T03:25:44;8.68;;;6.93;;
49610;SDS011;35515;48.766;9.176;2023-01-28T03:28:32;10.32;;;7.47;;
49610;SDS011;35515;48.766;9.176;2023-01-28T03:31:19;14.10;;;7.95;;
49610;SDS011;35515;48.766;9.176;2023-01-28T03:34:06;11.43;;;7.97;;
49610;SDS011;35515;48.766;9.176;2023-01-28T03:36:52;12.18;;;7.70;;
49610;SDS011;35515;48.766;9.176;2023-01-28T03:39:21;11.88;;;8.93;;
49610;SDS011;35515;48.766;9.176;2023-01-28T03:41:59;13.45;;;8.50;;
49610;SDS011;35515;48.766;9.176;2023-01-28T03:44:27;11.80;;;8.82;;
49610;SDS011;35515;48.766;9.176;2023-01-28T03:47:11;12.65;;;8.40;;
49610;SDS011;35515;48.766;9.176;2023-01-28T03:49:40;11.50;;;8.05;;
49610;SDS011;35515;48.766;9.176;2023-01-28T03:52:08;10.95;;;8.00;;
49610;SDS011;35515;48.766;9.176;2023-01-28T03:54:34;11.70;;;8.25;;
49610;SDS011;35515;48.766;9.176;2023-01-28T03:57:01;12.02;;;8.30;;
49610;SDS011;35515;48.766;9.176;2023-01-28T03:59:27;12.23;;;8.60;;
49610;SDS011;35515;48.766;9.176;2023-01-28T04:01:54;12.88;;;8.43;;
49610;SDS011;35515;48.766;9.176;2023-01-28T04:04:20;11.05;;;8.27;;
49610;SDS011;35515;48.766;9.176;2023-01-28T04:06:50;12.52;;;8.80;;
49610;SDS011;35515;48.766;9.176;2023-01-28T04:09:18;11.75;;;8.52;;
49610;SDS011;35515;48.766;9.176;2023-01-28T04:11:45;13.32;;;9.07;;
49610;SDS011;35515;48.766;9.176;2023-01-28T04:14:11;13.10;;;9.20;;
49610;SDS011;35515;48.766;9.176;2023-01-28T04:16:39;11.98;;;9.23;;
49610;SDS011;35515;48.766;9.176;2023-01-28T04:19:06;12.43;;;9.00;;
49610;SDS011;35515;48.766;9.176;2023-01-28T04:21:32;15.35;;;9.15;;
49610;SDS011;35515;48.766;9.176;2023-01-28T04:24:00;12.43;;;8.80;;
49610;SDS011;35515;48.766;9.176;2023-01-28T04:26:27;12.68;;;8.80;;
49610;SDS011;35515;48.766;9.176;2023-01-28T04:28:53;12.13;;;9.00;;
49610;SDS011;35515;48.766;9.176;2023-01-28T04:31:20;13.70;;;9.07;;
49610;SDS011;35515;48.766;9.176;2023-01-28T04:33:47;12.52;;;8.85;;
49610;SDS011;35515;48.766;9.176;2023-01-28T04:36:14;11.52;;;9.32;;
49610;SDS011;35515;48.766;9.176;2023-01-28T04:38:41;13.38;;;9.45;;
49610;SDS011;35515;48.766;9.176;2023-01-28T04:41:09;15.68;;;9.65;;
49610;SDS011;35515;48.766;9.176;2023-01-28T04:43:35;12.25;;;9.48;;
49610;SDS011;35515;48.766;9.176;2023-01-28T04:46:02;12.77;;;9.43;;
49610;SDS011;35515;48.766;9.176;2023-01-28T04:48:28;12.82;;;9.55;;
49610;SDS011;35515;48.766;9.176;2023-01-28T04:50:56;14.65;;;10.27;;
49610;SDS011;35515;48.766;9.176;2023-01-28T04:53:22;13.23;;;9.77;;
49610;SDS011;35515;48.766;9.176;2023-01-28T04:55:49;14.90;;;10.10;;
49610;SDS011;35515;48.766;9.176;2023-01-28T04:58:17;12.30;;;9.13;;
49610;SDS011;35515;48.766;9.176;2023-01-28T05:00:43;12.85;;;9.38;;
49610;SDS011;35515;48.766;9.176;2023-01-28T05:03:10;15.57;;;10.05;;
49610;SDS011;35515;48.766;9.176;2023-01-28T05:05:36;12.98;;;9.60;;
49610;SDS011;35515;48.766;9.176;2023-01-28T05:08:03;12.45;;;9.10;;
49610;SDS011;35515;48.766;9.176;2023-01-28T05:10:30;12.25;;;9.48;;
49610;SDS011;35515;48.766;9.176;2023-01-28T05:12:56;12.30;;;9.05;;
49610;SDS011;35515;48.766;9.176;2023-01-28T05:15:24;11.73;;;8.98;;
49610;SDS011;35515;48.766;9.176;2023-01-28T05:17:53;13.45;;;9.25;;
49610;SDS011;35515;48.766;9.176;2023-01-28T05:20:20;11.70;;;8.70;;
49610;SDS011;35515;48.766;9.176;2023-01-28T05:22:46;13.32;;;9.75;;
49610;SDS011;35515;48.766;9.176;2023-01-28T05:25:13;14.40;;;9.35;;
49610;SDS011;35515;48.766;9.176;2023-01-28T05:27:39;11.55;;;8.60;;
49610;SDS011;35515;48.766;9.176;2023-01-28T05:30:06;12.43;;;9.65;;
49610;SDS011;35515;48.766;9.176;2023-01-28T05:32:35;14.05;;;10.38;;
49610;SDS011;35515;48.766;9.176;2023-01-28T05:35:01;12.93;;;9.38;;
49610;SDS011;35515;48.766;9.176;2023-01-28T05:37:28;13.75;;;9.63;;
49610;SDS011;35515;48.766;9.176;2023-01-28T05:39:54;11.70;;;8.50;;
49610;SDS011;35515;48.766;9.176;2023-01-28T05:42:21;13.23;;;9.10;;
49610;SDS011;35515;48.766;9.176;2023-01-28T05:44:47;13.70;;;9.32;;
49610;SDS011;35515;48.766;9.176;2023-01-28T05:47:14;13.85;;;9.75;;
49610;SDS011;35515;48.766;9.176;2023-01-28T05:49:42;13.10;;;8.90;;
49610;SDS011;35515;48.766;9.176;2023-01-28T05:52:08;13.70;;;9.75;;
49610;SDS011;35515;48.766;9.176;2023-01-28T05:54:35;14.95;;;10.25;;
49610;SDS011;35515;48.766;9.176;2023-01-28T05:57:01;15.88;;;10.80;;
49610;SDS011;35515;48.766;9.176;2023-01-28T05:59:28;12.93;;;9.88;;
49610;SDS011;35515;48.766;9.176;2023-01-28T06:01:54;14.98;;;10.48;;
49610;SDS011;35515;48.766;9.176;2023-01-28T06:04:21;14.30;;;10.45;;
49610;SDS011;35515;48.766;9.176;2023-01-28T06:06:49;14.65;;;9.52;;
49610;SDS011;35515;48.766;9.176;2023-01-28T06:09:15;14.20;;;10.45;;
49610;SDS011;35515;48.766;9.176;2023-01-28T06:11:42;15.45;;;10.15;;
49610;SDS011;35515;48.766;9.176;2023-01-28T06:14:09;13.10;;;9.60;;
49610;SDS011;35515;48.766;9.176;2023-01-28T06:16:36;12.70;;;8.85;;
49610;SDS011;35515;48.766;9.176;2023-01-28T06:19:02;14.65;;;9.95;;
49610;SDS011;35515;48.766;9.176;2023-01-28T06:21:29;14.57;;;9.90;;
49610;SDS011;35515;48.766;9.176;2023-01-28T06:23:57;12.57;;;9.45;;
49610;SDS011;35515;48.766;9.176;2023-01-28T06:26:23;13.57;;;9.57;;
49610;SDS011;35515;48.766;9.176;2023-01-28T06:28:50;12.15;;;9.63;;
49610;SDS011;35515;48.766;9.176;2023-01-28T06:31:16;14.07;;;9.70;;
49610;SDS011;35515;48.766;9.176;2023-01-28T06:33:43;13.05;;;9.63;;
49610;SDS011;35515;48.766;9.176;2023-01-28T06:36:09;12.68;;;9.23;;
49610;SDS011;35515;48.766;9.176;2023-01-28T06:38:36;13.70;;;9.18;;
49610;SDS011;35515;48.766;9.176;2023-01-28T06:41:04;13.23;;;9.27;;
49610;SDS011;35515;48.766;9.176;2023-01-28T06:43:30;14.15;;;10.15;;
49610;SDS011;35515;48.766;9.176;2023-01-28T06:45:57;16.67;;;10.55;;
49610;SDS011;35515;48.766;9.176;2023-01-28T06:48:24;15.02;;;10.48;;
49610;SDS011;35515;48.766;9.176;2023-01-28T06:50:51;14.50;;;10.27;;
49610;SDS011;35515;48.766;9.176;2023-01-28T06:53:18;14.25;;;9.13;;
49610;SDS011;35515;48.766;9.176;2023-01-28T06:55:45;12.82;;;9.45;;
49610;SDS011;35515;48.766;9.176;2023-01-28T06:58:13;13.20;;;9.15;;
49610;SDS011;35515;48.766;9.176;2023-01-28T07:00:39;17.08;;;10.30;;
49610;SDS011;35515;48.766;9.176;2023-01-28T07:03:06;14.60;;;10.55;;
49610;SDS011;35515;48.766;9.176;2023-01-28T07:05:32;14.45;;;9.88;;
49610;SDS011;35515;48.766;9.176;2023-01-28T07:07:59;13.00;;;9.73;;
49610;SDS011;35515;48.766;9.176;2023-01-28T07:10:26;14.13;;;9.93;;
49610;SDS011;35515;48.766;9.176;2023-01-28T07:12:52;12.68;;;9.93;;
49610;SDS011;35515;48.766;9.176;2023-01-28T07:15:20;13.57;;;10.00;;
49610;SDS011;35515;48.766;9.176;2023-01-28T07:17:47;14.70;;;10.30;;
49610;SDS011;35515;48.766;9.176;2023-01-28T07:20:14;13.35;;;10.18;;
49610;SDS011;35515;48.766;9.176;2023-01-28T07:22:41;12.20;;;9.52;;
49610;SDS011;35515;48.766;9.176;2023-01-28T07:25:09;13.77;;;10.25;;
49610;SDS011;35515;48.766;9.176;2023-01-28T07:27:36;14.88;;;9.65;;
49610;SDS011;35515;48.766;9.176;2023-01-28T07:30:03;14.88;;;10.27;;
49610;SDS011;35515;48.766;9.176;2023-01-28T07:32:31;27.55;;;17.73;;
49610;SDS011;35515;48.766;9.176;2023-01-28T07:34:58;17.10;;;11.30;;
49610;SDS011;35515;48.766;9.176;2023-01-28T07:37:24;13.80;;;10.27;;
49610;SDS011;35515;48.766;9.176;2023-01-28T07:39:51;14.88;;;10.57;;
49610;SDS011;35515;48.766;9.176;2023-01-28T07:42:17;12.23;;;9.15;;
49610;SDS011;35515;48.766;9.176;2023-01-28T07:44:44;13.45;;;9.52;;
49610;SDS011;35515;48.766;9.176;2023-01-28T07:47:10;15.85;;;10.55;;
49610;SDS011;35515;48.766;9.176;2023-01-28T07:49:38;14.82;;;10.15;;
49610;SDS011;35515;48.766;9.176;2023-01-28T07:52:04;16.30;;;10.80;;
49610;SDS011;35515;48.766;9.176;2023-01-28T07:54:31;15.55;;;10.02;;
49610;SDS011;35515;48.766;9.176;2023-01-28T07:56:58;14.45;;;9.88;;
49610;SDS011;35515;48.766;9.176;2023-01-28T07:59:24;13.40;;;10.13;;
49610;SDS011;35515;48.766;9.176;2023-01-28T08:01:51;14.88;;;10.18;;
49610;SDS011;35515;48.766;9.176;2023-01-28T08:04:18;15.27;;;10.57;;
49610;SDS011;35515;48.766;9.176;2023-01-28T08:06:46;15.13;;;10.75;;
49610;SDS011;35515;48.766;9.176;2023-01-28T08:09:12;16.42;;;10.73;;
49610;SDS011;35515;48.766;9.176;2023-01-28T08:11:39;16.33;;;11.07;;
49610;SDS011;35515;48.766;9.176;2023-01-28T08:14:06;20.92;;;11.65;;
49610;SDS011;35515;48.766;9.176;2023-01-28T08:16:32;16.67;;;11.45;;
49610;SDS011;35515;48.766;9.176;2023-01-28T08:18:59;16.25;;;12.10;;
49610;SDS011;35515;48.766;9.176;2023-01-28T08:21:26;17.23;;;11.05;;
49610;SDS011;35515;48.766;9.176;2023-01-28T08:23:54;15.27;;;11.18;;
49610;SDS011;35515;48.766;9.176;2023-01-28T08:26:21;15.50;;;11.07;;
49610;SDS011;35515;48.766;9.176;2023-01-28T08:28:48;20.23;;;11.90;;
49610;SDS011;35515;48.766;9.176;2023-01-28T08:31:14;28.75;;;12.85;;
49610;SDS011;35515;48.766;9.176;2023-01-28T08:33:41;19.80;;;12.27;;
49610;SDS011;35515;48.766;9.176;2023-01-28T08:36:07;16.67;;;12.68;;
49610;SDS011;35515;48.766;9.176;2023-01-28T08:38:34;18.50;;;11.85;;
49610;SDS011;35515;48.766;9.176;2023-01-28T08:41:02;19.83;;;12.45;;
49610;SDS011;35515;48.766;9.176;2023-01-28T08:43:29;23.80;;;14.07;;
49610;SDS011;35515;48.766;9.176;2023-01-28T08:45:56;15.13;;;11.05;;
49610;SDS011;35515;48.766;9.176;2023-01-28T08:48:22;18.80;;;12.05;;
49610;SDS011;35515;48.766;9.176;2023-01-28T08:50:49;18.40;;;12.32;;
49610;SDS011;35515;48.766;9.176;2023-01-28T08:53:16;16.55;;;12.15;;
49610;SDS011;35515;48.766;9.176;2023-01-28T08:55:44;18.33;;;11.88;;
49610;SDS011;35515;48.766;9.176;2023-01-28T08:58:13;23.23;;;12.10;;
49610;SDS011;35515;48.766;9.176;2023-01-28T09:00:41;19.38;;;12.32;;
49610;SDS011;35515;48.766;9.176;2023-01-28T09:03:08;17.15;;;11.95;;
49610;SDS011;35515;48.766;9.176;2023-01-28T09:05:36;17.73;;;12.27;;
49610;SDS011;35515;48.766;9.176;2023-01-28T09:08:03;18.05;;;12.20;;
49610;SDS011;35515;48.766;9.176;2023-01-28T09:10:31;30.13;;;20.48;;
49610;SDS011;35515;48.766;9.176;2023-01-28T09:12:58;37.92;;;25.42;;
49610;SDS011;35515;48.766;9.176;2023-01-28T09:15:30;19.07;;;13.03;;
49610;SDS011;35515;48.766;9.176;2023-01-28T09:17:57;16.83;;;12.25;;
49610;SDS011;35515;48.766;9.176;2023-01-28T09:20:24;19.02;;;12.52;;
49610;SDS011;35515;48.766;9.176;2023-01-28T09:22:50;17.48;;;12.23;;
49610;SDS011;35515;48.766;9.176;2023-01-28T09:25:17;17.75;;;12.05;;
49610;SDS011;35515;48.766;9.176;2023-01-28T09:27:43;18.20;;;12.25;;
49610;SDS011;35515;48.766;9.176;2023-01-28T09:30:10;18.92;;;13.48;;
49610;SDS011;35515;48.766;9.176;2023-01-28T09:32:38;17.98;;;12.35;;
49610;SDS011;35515;48.766;9.176;2023-01-28T09:35:05;17.23;;;12.07;;
49610;SDS011;35515;48.766;9.176;2023-01-28T09:37:32;18.73;;;13.13;;
49610;SDS011;35515;48.766;9.176;2023-01-28T09:39:59;19.77;;;13.25;;
49610;SDS011;35515;48.766;9.176;2023-01-28T09:42:29;19.13;;;12.75;;
49610;SDS011;35515;48.766;9.176;2023-01-28T09:45:06;19.95;;;13.13;;
49610;SDS011;35515;48.766;9.176;2023-01-28T09:47:42;17.63;;;13.00;;
49610;SDS011;35515;48.766;9.176;2023-01-28T09:50:13;20.58;;;13.32;;
49610;SDS011;35515;48.766;9.176;2023-01-28T09:52:42;19.27;;;13.55;;
49610;SDS011;35515;48.766;9.176;2023-01-28T09:55:13;21.33;;;14.07;;
49610;SDS011;35515;48.766;9.176;2023-01-28T09:57:46;20.38;;;13.25;;
49610;SDS011;35515;48.766;9.176;2023-01-28T10:00:16;22.00;;;13.48;;
49610;SDS011;35515;48.766;9.176;2023-01-28T10:05:41;18.13;;;12.65;;
49610;SDS011;35515;48.766;9.176;2023-01-28T10:08:20;18.02;;;12.70;;
49610;SDS011;35515;48.766;9.176;2023-01-28T10:10:55;20.92;;;14.13;;
49610;SDS011;35515;48.766;9.176;2023-01-28T10:13:31;32.97;;;20.45;;
49610;SDS011;35515;48.766;9.176;2023-01-28T10:16:08;40.25;;;24.60;;
49610;SDS011;35515;48.766;9.176;2023-01-28T10:18:45;30.60;;;19.42;;
49610;SDS011;35515;48.766;9.176;2023-01-28T10:21:17;20.77;;;13.45;;
49610;SDS011;35515;48.766;9.176;2023-01-28T10:23:51;21.48;;;13.15;;
49610;SDS011;35515;48.766;9.176;2023-01-28T10:26:24;21.60;;;13.40;;
49610;SDS011;35515;48.766;9.176;2023-01-28T10:28:57;22.50;;;14.52;;
49610;SDS011;35515;48.766;9.176;2023-01-28T10:31:30;20.90;;;13.32;;
49610;SDS011;35515;48.766;9.176;2023-01-28T10:36:28;20.00;;;13.05;;
49610;SDS011;35515;48.766;9.176;2023-01-28T10:38:55;21.10;;;12.95;;
49610;SDS011;35515;48.766;9.176;2023-01-28T10:41:22;18.58;;;13.32;;
49610;SDS011;35515;48.766;9.176;2023-01-28T10:43:50;35.70;;;19.23;;
49610;SDS011;35515;48.766;9.176;2023-01-28T10:46:18;22.48;;;15.15;;
49610;SDS011;35515;48.766;9.176;2023-01-28T10:48:47;21.50;;;14.40;;
49610;SDS011;35515;48.766;9.176;2023-01-28T10:51:30;21.25;;;14.27;;
49610;SDS011;35515;48.766;9.176;2023-01-28T10:53:58;20.90;;;13.80;;
49610;SDS011;35515;48.766;9.176;2023-01-28T10:56:25;22.83;;;14.20;;
49610;SDS011;35515;48.766;9.176;2023-01-28T10:58:56;21.58;;;14.23;;
49610;SDS011;35515;48.766;9.176;2023-01-28T11:01:25;23.88;;;14.07;;
49610;SDS011;35515;48.766;9.176;2023-01-28T11:04:05;19.60;;;13.93;;
49610;SDS011;35515;48.766;9.176;2023-01-28T11:06:33;22.85;;;14.68;;
49610;SDS011;35515;48.766;9.176;2023-01-28T11:08:59;20.65;;;13.80;;
49610;SDS011;35515;48.766;9.176;2023-01-28T11:11:26;21.05;;;13.70;;
49610;SDS011;35515;48.766;9.176;2023-01-28T11:13:54;21.23;;;14.20;;
49610;SDS011;35515;48.766;9.176;2023-01-28T11:16:22;22.48;;;15.30;;
49610;SDS011;35515;48.766;9.176;2023-01-28T11:18:51;20.13;;;13.57;;
49610;SDS011;35515;48.766;9.176;2023-01-28T11:21:20;22.33;;;13.82;;
49610;SDS011;35515;48.766;9.176;2023-01-28T11:23:51;21.73;;;13.73;;
49610;SDS011;35515;48.766;9.176;2023-01-28T11:26:21;21.05;;;13.95;;
49610;SDS011;35515;48.766;9.176;2023-01-28T11:28:50;21.10;;;14.48;;
49610;SDS011;35515;48.766;9.176;2023-01-28T11:31:18;23.17;;;14.32;;
49610;SDS011;35515;48.766;9.176;2023-01-28T11:33:48;20.48;;;13.77;;
49610;SDS011;35515;48.766;9.176;2023-01-28T11:36:18;25.60;;;15.40;;
49610;SDS011;35515;48.766;9.176;2023-01-28T11:38:47;19.52;;;13.68;;
49610;SDS011;35515;48.766;9.176;2023-01-28T11:41:17;34.90;;;23.05;;
49610;SDS011;35515;48.766;9.176;2023-01-28T11:43:48;33.20;;;20.90;;
49610;SDS011;35515;48.766;9.176;2023-01-28T11:46:33;21.95;;;14.43;;
49610;SDS011;35515;48.766;9.176;2023-01-28T11:49:12;20.42;;;14.30;;
49610;SDS011;35515;48.766;9.176;2023-01-28T11:51:47;22.77;;;14.52;;
49610;SDS011;35515;48.766;9.176;2023-01-28T11:57:28;20.45;;;14.10;;
49610;SDS011;35515;48.766;9.176;2023-01-28T12:00:06;21.05;;;14.30;;
49610;SDS011;35515;48.766;9.176;2023-01-28T12:02:52;24.00;;;16.15;;
49610;SDS011;35515;48.766;9.176;2023-01-28T12:08:15;23.10;;;14.23;;
49610;SDS011;35515;48.766;9.176;2023-01-28T12:10:52;21.20;;;13.88;;
49610;SDS011;35515;48.766;9.176;2023-01-28T12:13:40;25.60;;;15.20;;
49610;SDS011;35515;48.766;9.176;2023-01-28T12:16:20;26.52;;;18.17;;
49610;SDS011;35515;48.766;9.176;2023-01-28T12:19:18;26.85;;;17.40;;
49610;SDS011;35515;48.766;9.176;2023-01-28T12:24:57;23.85;;;15.75;;
49610;SDS011;35515;48.766;9.176;2023-01-28T12:27:37;24.73;;;14.90;;
49610;SDS011;35515;48.766;9.176;2023-01-28T12:30:16;21.55;;;14.18;;
49610;SDS011;35515;48.766;9.176;2023-01-28T12:32:52;22.33;;;13.82;;
49610;SDS011;35515;48.766;9.176;2023-01-28T12:35:40;21.77;;;14.82;;
49610;SDS011;35515;48.766;9.176;2023-01-28T12:38:17;26.88;;;15.45;;
49610;SDS011;35515;48.766;9.176;2023-01-28T12:40:57;22.20;;;14.05;;
49610;SDS011;35515;48.766;9.176;2023-01-28T12:43:35;23.63;;;14.77;;
49610;SDS011;35515;48.766;9.176;2023-01-28T12:46:10;20.42;;;13.68;;
49610;SDS011;35515;48.766;9.176;2023-01-28T12:48:44;19.83;;;12.93;;
49610;SDS011;35515;48.766;9.176;2023-01-28T12:51:15;19.58;;;13.43;;
49610;SDS011;35515;48.766;9.176;2023-01-28T12:56:15;21.73;;;13.13;;
49610;SDS011;35515;48.766;9.176;2023-01-28T12:58:46;23.25;;;13.90;;
49610;SDS011;35515;48.766;9.176;2023-01-28T13:01:18;25.02;;;15.75;;
49610;SDS011;35515;48.766;9.176;2023-01-28T13:03:50;22.50;;;14.15;;
49610;SDS011;35515;48.766;9.176;2023-01-28T13:06:23;19.58;;;12.48;;
49610;SDS011;35515;48.766;9.176;2023-01-28T13:08:56;18.83;;;12.07;;
49610;SDS011;35515;48.766;9.176;2023-01-28T13:11:25;20.02;;;12.52;;
49610;SDS011;35515;48.766;9.176;2023-01-28T13:13:58;16.80;;;11.25;;
49610;SDS011;35515;48.766;9.176;2023-01-28T13:16:27;16.02;;;10.65;;
49610;SDS011;35515;48.766;9.176;2023-01-28T13:19:02;19.23;;;11.48;;
49610;SDS011;35515;48.766;9.176;2023-01-28T13:21:32;16.10;;;10.20;;
49610;SDS011;35515;48.766;9.176;2023-01-28T13:24:18;17.98;;;9.77;;
49610;SDS011;35515;48.766;9.176;2023-01-28T13:26:48;15.20;;;9.50;;
49610;SDS011;35515;48.766;9.176;2023-01-28T13:29:20;13.82;;;8.82;;
49610;SDS011;35515;48.766;9.176;2023-01-28T13:31:56;13.02;;;8.73;;
49610;SDS011;35515;48.766;9.176;2023-01-28T13:34:26;15.80;;;9.07;;
49610;SDS011;35515;48.766;9.176;2023-01-28T13:36:57;11.32;;;7.53;;
49610;SDS011;35515;48.766;9.176;2023-01-28T13:39:25;12.50;;;8.07;;
49610;SDS011;35515;48.766;9.176;2023-01-28T13:41:54;11.75;;;7.75;;
49610;SDS011;35515;48.766;9.176;2023-01-28T13:44:33;11.27;;;8.30;;
49610;SDS011;35515;48.766;9.176;2023-01-28T13:47:12;13.07;;;8.55;;
49610;SDS011;35515;48.766;9.176;2023-01-28T13:49:46;12.57;;;8.32;;
49610;SDS011;35515;48.766;9.176;2023-01-28T13:52:15;12.80;;;9.15;;
49610;SDS011;35515;48.766;9.176;2023-01-28T13:54:50;13.75;;;9.27;;
49610;SDS011;35515;48.766;9.176;2023-01-28T14:00:22;13.25;;;9.50;;
49610;SDS011;35515;48.766;9.176;2023-01-28T14:06:24;17.23;;;10.27;;
49610;SDS011;35515;48.766;9.176;2023-01-28T14:12:28;15.68;;;11.23;;
49610;SDS011;35515;48.766;9.176;2023-01-28T14:15:15;16.25;;;11.27;;
49610;SDS011;35515;48.766;9.176;2023-01-28T14:17:51;18.17;;;11.48;;
49610;SDS011;35515;48.766;9.176;2023-01-28T14:20:21;17.92;;;10.93;;
49610;SDS011;35515;48.766;9.176;2023-01-28T14:27:54;16.08;;;10.27;;
49610;SDS011;35515;48.766;9.176;2023-01-28T14:30:24;14.98;;;9.85;;
49610;SDS011;35515;48.766;9.176;2023-01-28T14:33:01;16.60;;;10.93;;
49610;SDS011;35515;48.766;9.176;2023-01-28T14:35:29;15.60;;;10.18;;
49610;SDS011;35515;48.766;9.176;2023-01-28T14:37:58;17.52;;;10.55;;
49610;SDS011;35515;48.766;9.176;2023-01-28T14:40:31;16.63;;;10.10;;
49610;SDS011;35515;48.766;9.176;2023-01-28T14:43:00;15.65;;;10.07;;
49610;SDS011;35515;48.766;9.176;2023-01-28T14:45:34;14.30;;;10.25;;
49610;SDS011;35515;48.766;9.176;2023-01-28T14:48:20;17.30;;;11.35;;
49610;SDS011;35515;48.766;9.176;2023-01-28T14:51:03;13.07;;;10.30;;
49610;SDS011;35515;48.766;9.176;2023-01-28T14:53:43;14.07;;;9.65;;
49610;SDS011;35515;48.766;9.176;2023-01-28T14:58:56;17.90;;;11.77;;
49610;SDS011;35515;48.766;9.176;2023-01-28T15:01:26;29.73;;;18.15;;
49610;SDS011;35515;48.766;9.176;2023-01-28T15:03:54;16.23;;;10.18;;
49610;SDS011;35515;48.766;9.176;2023-01-28T15:06:23;11.90;;;8.13;;
49610;SDS011;35515;48.766;9.176;2023-01-28T15:08:50;14.38;;;9.23;;
49610;SDS011;35515;48.766;9.176;2023-01-28T15:11:19;10.48;;;8.68;;
49610;SDS011;35515;48.766;9.176;2023-01-28T15:13:48;9.73;;;7.50;;
49610;SDS011;35515;48.766;9.176;2023-01-28T15:16:18;11.88;;;8.18;;
49610;SDS011;35515;48.766;9.176;2023-01-28T15:18:46;11.27;;;7.97;;
49610;SDS011;35515;48.766;9.176;2023-01-28T15:21:17;10.80;;;8.00;;
49610;SDS011;35515;48.766;9.176;2023-01-28T15:23:47;11.95;;;7.50;;
49610;SDS011;35515;48.766;9.176;2023-01-28T15:26:16;12.85;;;8.60;;
49610;SDS011;35515;48.766;9.176;2023-01-28T15:28:45;12.93;;;7.43;;
49610;SDS011;35515;48.766;9.176;2023-01-28T15:31:20;9.55;;;7.22;;